Domov               UVHVVR             MKGP            O straneh              
ZDRAVSTVENO VARSTVO RASTLIN
  MREŽA AGROMET. POSTAJ
 ► PROGNOSTIČNA OBVESTILA
AGROMETEOROLOŠKI PODATKI -
ARSO
OBVLADOVANJE TVEGANJ ZARADI
NEUGODNIH VREMENSKIH RAZMER
  ► NARAVNE NESREČE
  ► SUŠA/MOČA
  ► NAMAKANJE
  ► ŽLED (gozdarstvo)
KARTOGRAFSKI PRIKAZI
SPLETNE POVEZAVE
PROJEKTI IN PUBLIKACIJE

AGROMETEOROLOŠKA MREŽA: VREMENSKE POSTAJE IN FENOLOŠKA OPAZOVANJA

Pregled podatkov za lokacijo Otočec, meteorološka postaja 37169

Pregled senzorjev na lokaciji

ID Ime Zadnja
vrednost
Datum
zadnje
spremembe
Tip
senzorja
3924 Relativna vlaga 2 m (% RH) 42,44 % RH 22.8.2017 18:15 50YA
3925 Temperatura 2 m ( °C) 23,83 °C 22.8.2017 18:15 50YA
3926 Omočenost lista (U) 0 U 22.8.2017 18:15 A730WET
3927 Padavine 0.2 mm (mm) 0 mm 22.8.2017 18:15 Rain-O-Matic

Pregled podatkov zadnjih 24 ur

Zap.
št.
Datum in čas Otočec
Omočenost
lista
Padavine
0.2
mm
Relativna
vlaga
2
m
Temperatura
2
m
0 22.8.2017 17:30 0 0 42,44 23,83
1 22.8.2017 17:00 0 0 39,34 24,57
2 22.8.2017 16:30 0 0 36,47 24,66
3 22.8.2017 16:00 0 0 34,91 25,04
4 22.8.2017 15:30 0 0 35,92 25,16
5 22.8.2017 15:00 0 0 35,82 25,24
6 22.8.2017 14:30 0 0 36,83 25,34
7 22.8.2017 14:00 0 0 39,23 24,54
8 22.8.2017 13:30 0 0 39,55 24,92
9 22.8.2017 13:00 0 0 40,29 24,33
10 22.8.2017 12:30 0 0 40,78 23,85
11 22.8.2017 12:00 0 0 40,87 22,8
12 22.8.2017 11:30 0 0 44,82 22,22
13 22.8.2017 11:00 0 0 46,67 21,49
14 22.8.2017 10:30 0 0 47,91 20,81
15 22.8.2017 10:00 0 0 50,49 20,79
16 22.8.2017 09:30 0 0 55,92 20,68
17 22.8.2017 09:00 0 0 62,31 19,37
18 22.8.2017 08:30 0 0 69,82 17,12
19 22.8.2017 08:00 7,5 0 77,72 14,81
20 22.8.2017 07:30 10 0 84,3 12,91
21 22.8.2017 07:00 9 0 92,09 10,79
22 22.8.2017 06:30 9 0 96,4 9,51
23 22.8.2017 06:00 9 0 98,51 8,9
24 22.8.2017 05:30 9 0 98,56 8,57
25 22.8.2017 05:00 8 0 98,12 8,82
26 22.8.2017 04:30 6 0 98,63 8,89
27 22.8.2017 04:00 3 0 98,63 9,04
28 22.8.2017 03:30 2 0 98,8 9,11
29 22.8.2017 03:00 1 0 98,02 9,18
30 22.8.2017 02:30 1 0 96,56 9,79
31 22.8.2017 02:00 1 0 98,07 9,91
32 22.8.2017 01:30 1 0 97,73 9,52
33 22.8.2017 01:00 1 0 96,51 9,62
34 22.8.2017 00:30 1 0 92,55 10,43
35 22.8.2017 00:00 0 0 94,73 10,31
36 21.8.2017 23:30 0 0 93,24 10,53
37 21.8.2017 23:00 0 0 87,2 10,99
38 21.8.2017 22:30 0 0 89,3 11,7
39 21.8.2017 22:00 0 0 88,52 11,89
40 21.8.2017 21:30 0 0 79,71 12,97
41 21.8.2017 21:00 0 0 76,41 14,02
42 21.8.2017 20:30 0 0 75,07 14,43
43 21.8.2017 20:00 0 0 70,96 15,04
44 21.8.2017 19:30 0 0 66,94 16,26
45 21.8.2017 19:00 0 0 63,52 17,56
© 2011 Ministrstvo za kmetijstvo, gozdarstvo in prehrano. Vse pravice pridržane.